NWS247 ULLI-UWKD
Flight info
| Callsign | NWS247 |
|---|---|
| Flight time | 1h 37m |
| Altitude | 37000 |
| Route | SUGIN OLUGA GILAM NAMER L94 UNORO T788 KOROM |
| Aircraft | B738/M-SDE1E2E3FGHIJ2J3J4J5M1RWXYZ/LB1D1 |
Departure
| Time | 2026-05-05 16:58 |
|---|---|
| Airport | Pulkovo Airport (ULLI) |
Arrival
| Time | 2026-05-05 18:36 |
|---|---|
| Airport | Kazan International Airport (UWKD) |
| Time | Latitude | Longitude | Altitude | Speed | Heading |
|---|---|---|---|---|---|
| 2026-05-05 16:41 | 59.79906 | 30.26339 | 87 ft | 0 kts | 286° |
| 2026-05-05 16:52 | 59.79907 | 30.26333 | 87 ft | 2 kts | 287° |
| 2026-05-05 16:52 | 59.79935 | 30.26245 | 87 ft | 9 kts | 346° |
| 2026-05-05 16:52 | 59.79996 | 30.26266 | 87 ft | 9 kts | 15° |
| 2026-05-05 16:53 | 59.80085 | 30.26319 | 88 ft | 17 kts | 16° |
| 2026-05-05 16:53 | 59.80229 | 30.26404 | 85 ft | 24 kts | 17° |
| 2026-05-05 16:53 | 59.80363 | 30.26466 | 81 ft | 15 kts | 357° |
| 2026-05-05 16:53 | 59.80438 | 30.26564 | 79 ft | 14 kts | 89° |
| 2026-05-05 16:54 | 59.80401 | 30.26830 | 80 ft | 22 kts | 106° |
| 2026-05-05 16:54 | 59.80361 | 30.27116 | 78 ft | 21 kts | 107° |
| 2026-05-05 16:54 | 59.80316 | 30.27395 | 78 ft | 20 kts | 107° |
| 2026-05-05 16:54 | 59.80273 | 30.27692 | 78 ft | 26 kts | 106° |
| 2026-05-05 16:55 | 59.80222 | 30.28037 | 76 ft | 25 kts | 106° |
| 2026-05-05 16:55 | 59.80170 | 30.28379 | 74 ft | 25 kts | 106° |
| 2026-05-05 16:55 | 59.80123 | 30.28700 | 74 ft | 23 kts | 105° |
| 2026-05-05 16:55 | 59.80078 | 30.29007 | 73 ft | 23 kts | 105° |
| 2026-05-05 16:56 | 59.80034 | 30.29302 | 74 ft | 21 kts | 108° |
| 2026-05-05 16:56 | 59.79993 | 30.29567 | 74 ft | 19 kts | 105° |
| 2026-05-05 16:56 | 59.79956 | 30.29817 | 74 ft | 18 kts | 106° |
| 2026-05-05 16:56 | 59.79944 | 30.30035 | 77 ft | 14 kts | 61° |
| 2026-05-05 16:57 | 59.80018 | 30.30197 | 74 ft | 18 kts | 46° |
| 2026-05-05 16:57 | 59.80115 | 30.30259 | 74 ft | 15 kts | 307° |
| 2026-05-05 16:57 | 59.80152 | 30.30053 | 74 ft | 31 kts | 287° |
| 2026-05-05 16:57 | 59.80298 | 30.29073 | 71 ft | 114 kts | 286° |
| 2026-05-05 16:58 | 59.80598 | 30.27115 | 198 ft | 170 kts | 288° |
| 2026-05-05 16:58 | 59.80983 | 30.24838 | 1042 ft | 184 kts | 289° |
| 2026-05-05 16:58 | 59.81428 | 30.22248 | 1571 ft | 214 kts | 288° |
| 2026-05-05 16:58 | 59.81804 | 30.19498 | 2472 ft | 208 kts | 284° |
| 2026-05-05 16:59 | 59.82166 | 30.16713 | 3145 ft | 212 kts | 285° |
| 2026-05-05 16:59 | 59.82569 | 30.13919 | 3839 ft | 214 kts | 285° |
| 2026-05-05 16:59 | 59.82997 | 30.11109 | 4514 ft | 216 kts | 285° |
| 2026-05-05 16:59 | 59.83425 | 30.08254 | 5200 ft | 217 kts | 284° |
| 2026-05-05 17:00 | 59.83832 | 30.05381 | 5863 ft | 218 kts | 279° |
| 2026-05-05 17:00 | 59.83904 | 30.02444 | 6510 ft | 216 kts | 259° |
| 2026-05-05 17:00 | 59.83418 | 29.99709 | 7229 ft | 213 kts | 243° |
| 2026-05-05 17:00 | 59.82551 | 29.97311 | 7823 ft | 217 kts | 228° |
| 2026-05-05 17:01 | 59.81277 | 29.95685 | 8494 ft | 224 kts | 208° |
| 2026-05-05 17:01 | 59.79790 | 29.94769 | 9111 ft | 228 kts | 204° |
| 2026-05-05 17:01 | 59.78267 | 29.93930 | 9719 ft | 230 kts | 204° |
| 2026-05-05 17:01 | 59.76685 | 29.93315 | 10240 ft | 241 kts | 193° |
| 2026-05-05 17:02 | 59.74975 | 29.93792 | 10778 ft | 265 kts | 169° |
| 2026-05-05 17:02 | 59.73375 | 29.95749 | 11498 ft | 284 kts | 148° |
| 2026-05-05 17:02 | 59.72059 | 29.98983 | 11795 ft | 318 kts | 124° |
| 2026-05-05 17:02 | 59.71224 | 30.03193 | 12201 ft | 337 kts | 113° |
| 2026-05-05 17:03 | 59.70580 | 30.07753 | 12486 ft | 355 kts | 110° |
| 2026-05-05 17:03 | 59.69957 | 30.12550 | 12767 ft | 371 kts | 109° |
| 2026-05-05 17:03 | 59.69576 | 30.17704 | 13274 ft | 384 kts | 96° |
| 2026-05-05 17:03 | 59.69484 | 30.22960 | 13883 ft | 389 kts | 95° |
| 2026-05-05 17:04 | 59.69391 | 30.28327 | 14552 ft | 392 kts | 96° |
| 2026-05-05 17:04 | 59.69240 | 30.33657 | 15123 ft | 396 kts | 99° |
| 2026-05-05 17:04 | 59.68879 | 30.39011 | 15757 ft | 397 kts | 104° |
| 2026-05-05 17:04 | 59.68345 | 30.44442 | 16312 ft | 400 kts | 107° |
| 2026-05-05 17:05 | 59.67743 | 30.49766 | 16916 ft | 403 kts | 107° |
| 2026-05-05 17:05 | 59.67102 | 30.55195 | 17491 ft | 407 kts | 108° |
| 2026-05-05 17:05 | 59.66470 | 30.60609 | 18028 ft | 411 kts | 107° |
| 2026-05-05 17:05 | 59.65844 | 30.66099 | 18595 ft | 415 kts | 108° |
| 2026-05-05 17:06 | 59.65236 | 30.71678 | 19129 ft | 419 kts | 106° |
| 2026-05-05 17:06 | 59.64704 | 30.77356 | 19690 ft | 422 kts | 104° |
| 2026-05-05 17:06 | 59.64227 | 30.83109 | 20152 ft | 426 kts | 103° |
| 2026-05-05 17:06 | 59.63772 | 30.88865 | 20676 ft | 429 kts | 103° |
| 2026-05-05 17:07 | 59.63312 | 30.94706 | 21170 ft | 432 kts | 103° |
| 2026-05-05 17:07 | 59.62847 | 31.00556 | 21635 ft | 436 kts | 103° |
| 2026-05-05 17:07 | 59.62373 | 31.06394 | 22106 ft | 438 kts | 103° |
| 2026-05-05 17:07 | 59.61879 | 31.12361 | 22547 ft | 442 kts | 103° |
| 2026-05-05 17:08 | 59.61379 | 31.18292 | 22996 ft | 444 kts | 103° |
| 2026-05-05 17:08 | 59.60862 | 31.24369 | 23341 ft | 450 kts | 103° |
| 2026-05-05 17:08 | 59.60346 | 31.30383 | 23854 ft | 451 kts | 103° |
| 2026-05-05 17:08 | 59.59818 | 31.36479 | 24296 ft | 454 kts | 103° |
| 2026-05-05 17:09 | 59.59283 | 31.42588 | 24727 ft | 456 kts | 103° |
| 2026-05-05 17:09 | 59.58735 | 31.48754 | 25183 ft | 458 kts | 104° |
| 2026-05-05 17:09 | 59.58175 | 31.54939 | 25615 ft | 460 kts | 104° |
| 2026-05-05 17:09 | 59.57616 | 31.61104 | 26031 ft | 462 kts | 104° |
| 2026-05-05 17:10 | 59.57055 | 31.67333 | 26442 ft | 465 kts | 105° |
| 2026-05-05 17:10 | 59.56490 | 31.73616 | 26841 ft | 467 kts | 104° |
| 2026-05-05 17:10 | 59.55925 | 31.79894 | 27245 ft | 468 kts | 104° |
| 2026-05-05 17:10 | 59.55347 | 31.86255 | 27609 ft | 471 kts | 104° |
| 2026-05-05 17:11 | 59.54770 | 31.92565 | 27990 ft | 472 kts | 104° |
| 2026-05-05 17:11 | 59.54194 | 31.98869 | 28378 ft | 473 kts | 104° |
| 2026-05-05 17:11 | 59.53606 | 32.05292 | 28733 ft | 475 kts | 104° |
| 2026-05-05 17:11 | 59.53002 | 32.11743 | 29053 ft | 478 kts | 105° |
| 2026-05-05 17:12 | 59.52300 | 32.18172 | 29402 ft | 478 kts | 108° |
| 2026-05-05 17:12 | 59.51476 | 32.24523 | 29751 ft | 478 kts | 109° |
| 2026-05-05 17:12 | 59.50577 | 32.30918 | 30082 ft | 480 kts | 110° |
| 2026-05-05 17:12 | 59.49668 | 32.37203 | 30389 ft | 482 kts | 110° |
| 2026-05-05 17:13 | 59.48750 | 32.43482 | 30683 ft | 484 kts | 110° |
| 2026-05-05 17:13 | 59.47822 | 32.49847 | 31026 ft | 485 kts | 110° |
| 2026-05-05 17:13 | 59.46887 | 32.56292 | 31244 ft | 488 kts | 110° |
| 2026-05-05 17:13 | 59.45972 | 32.62648 | 31538 ft | 489 kts | 109° |
| 2026-05-05 17:14 | 59.45057 | 32.69042 | 31837 ft | 490 kts | 110° |
| 2026-05-05 17:14 | 59.44136 | 32.75492 | 32089 ft | 492 kts | 110° |
| 2026-05-05 17:14 | 59.43223 | 32.81911 | 32320 ft | 494 kts | 110° |
| 2026-05-05 17:14 | 59.42298 | 32.88401 | 32650 ft | 493 kts | 110° |
| 2026-05-05 17:15 | 59.41375 | 32.94862 | 32840 ft | 496 kts | 110° |
| 2026-05-05 17:15 | 59.40452 | 33.01323 | 33133 ft | 496 kts | 110° |
| 2026-05-05 17:15 | 59.39513 | 33.07884 | 33491 ft | 494 kts | 110° |
| 2026-05-05 17:15 | 59.38590 | 33.14280 | 33884 ft | 491 kts | 110° |
| 2026-05-05 17:16 | 59.37665 | 33.20657 | 34217 ft | 490 kts | 110° |
| 2026-05-05 17:16 | 59.36735 | 33.27037 | 34514 ft | 489 kts | 109° |
| 2026-05-05 17:16 | 59.35792 | 33.33487 | 34776 ft | 488 kts | 110° |
| 2026-05-05 17:16 | 59.34861 | 33.39844 | 34950 ft | 489 kts | 109° |
| 2026-05-05 17:17 | 59.33936 | 33.46142 | 35123 ft | 488 kts | 109° |
| 2026-05-05 17:17 | 59.32994 | 33.52505 | 35297 ft | 488 kts | 109° |
| 2026-05-05 17:17 | 59.32049 | 33.58848 | 35446 ft | 488 kts | 110° |
| 2026-05-05 17:17 | 59.31095 | 33.65195 | 35618 ft | 487 kts | 110° |
| 2026-05-05 17:18 | 59.30133 | 33.71561 | 35759 ft | 487 kts | 110° |
| 2026-05-05 17:18 | 59.29182 | 33.77851 | 35921 ft | 487 kts | 110° |
| 2026-05-05 17:18 | 59.28218 | 33.84218 | 36075 ft | 486 kts | 110° |
| 2026-05-05 17:18 | 59.27272 | 33.90466 | 36242 ft | 486 kts | 110° |
| 2026-05-05 17:19 | 59.26320 | 33.96765 | 36470 ft | 485 kts | 110° |
| 2026-05-05 17:19 | 59.25359 | 34.03113 | 36671 ft | 485 kts | 110° |
| 2026-05-05 17:19 | 59.23443 | 34.15662 | 36737 ft | 488 kts | 110° |
| 2026-05-05 17:20 | 59.21491 | 34.28267 | 36734 ft | 486 kts | 110° |
| 2026-05-05 17:20 | 59.19533 | 34.40801 | 36735 ft | 484 kts | 110° |
| 2026-05-05 17:21 | 59.17568 | 34.53305 | 36741 ft | 485 kts | 110° |
| 2026-05-05 17:22 | 59.14591 | 34.72076 | 36737 ft | 485 kts | 111° |
| 2026-05-05 17:22 | 59.12584 | 34.84588 | 36741 ft | 486 kts | 111° |
| 2026-05-05 17:23 | 59.10577 | 34.97058 | 36736 ft | 485 kts | 111° |
| 2026-05-05 17:23 | 59.08566 | 35.09508 | 36736 ft | 485 kts | 111° |
| 2026-05-05 17:24 | 59.06545 | 35.21890 | 36736 ft | 485 kts | 111° |
| 2026-05-05 17:24 | 59.04497 | 35.34313 | 36737 ft | 483 kts | 111° |
| 2026-05-05 17:25 | 59.02448 | 35.46713 | 36733 ft | 484 kts | 111° |
| 2026-05-05 17:25 | 59.00385 | 35.59077 | 36731 ft | 484 kts | 111° |
| 2026-05-05 17:26 | 58.98295 | 35.71403 | 37025 ft | 484 kts | 112° |
| 2026-05-05 17:26 | 58.97249 | 35.77592 | 36870 ft | 485 kts | 112° |
| 2026-05-05 17:26 | 58.96205 | 35.83771 | 36770 ft | 483 kts | 112° |
| 2026-05-05 17:27 | 58.94133 | 35.96015 | 36746 ft | 478 kts | 112° |
| 2026-05-05 17:27 | 58.92057 | 36.08197 | 36755 ft | 482 kts | 111° |
| 2026-05-05 17:28 | 58.89924 | 36.20531 | 36764 ft | 484 kts | 112° |
| 2026-05-05 17:28 | 58.88850 | 36.26678 | 36465 ft | 482 kts | 112° |
| 2026-05-05 17:28 | 58.87786 | 36.32753 | 36936 ft | 481 kts | 112° |
| 2026-05-05 17:28 | 58.86716 | 36.38858 | 36831 ft | 485 kts | 112° |
| 2026-05-05 17:29 | 58.85644 | 36.44962 | 36605 ft | 481 kts | 111° |
| 2026-05-05 17:29 | 58.84580 | 36.51024 | 36721 ft | 481 kts | 112° |
| 2026-05-05 17:29 | 58.83494 | 36.57198 | 36619 ft | 486 kts | 111° |
| 2026-05-05 17:30 | 58.81336 | 36.69417 | 36753 ft | 482 kts | 112° |
| 2026-05-05 17:30 | 58.79159 | 36.81616 | 36761 ft | 483 kts | 112° |
| 2026-05-05 17:31 | 58.76987 | 36.93727 | 36757 ft | 483 kts | 112° |
| 2026-05-05 17:31 | 58.74797 | 37.05868 | 36756 ft | 482 kts | 112° |
| 2026-05-05 17:32 | 58.72590 | 37.18018 | 36756 ft | 483 kts | 112° |
| 2026-05-05 17:32 | 58.70363 | 37.30136 | 36755 ft | 482 kts | 112° |
| 2026-05-05 17:33 | 58.68143 | 37.42217 | 36753 ft | 480 kts | 112° |
| 2026-05-05 17:33 | 58.65926 | 37.54186 | 36760 ft | 481 kts | 112° |
| 2026-05-05 17:34 | 58.63676 | 37.66233 | 36759 ft | 481 kts | 113° |
| 2026-05-05 17:34 | 58.61414 | 37.78294 | 36762 ft | 480 kts | 113° |
| 2026-05-05 17:35 | 58.59150 | 37.90277 | 36761 ft | 481 kts | 113° |
| 2026-05-05 17:35 | 58.56878 | 38.02250 | 36774 ft | 480 kts | 113° |
| 2026-05-05 17:36 | 58.54599 | 38.14187 | 36765 ft | 479 kts | 114° |
| 2026-05-05 17:36 | 58.52303 | 38.26115 | 36769 ft | 480 kts | 113° |
| 2026-05-05 17:37 | 58.49999 | 38.38003 | 36771 ft | 479 kts | 114° |
| 2026-05-05 17:37 | 58.47688 | 38.49875 | 36775 ft | 479 kts | 113° |
| 2026-05-05 17:38 | 58.45360 | 38.61729 | 36787 ft | 480 kts | 113° |
| 2026-05-05 17:38 | 58.43016 | 38.73556 | 36795 ft | 479 kts | 114° |
| 2026-05-05 17:39 | 58.40673 | 38.85381 | 36799 ft | 479 kts | 114° |
| 2026-05-05 17:39 | 58.38321 | 38.97176 | 36777 ft | 479 kts | 114° |
| 2026-05-05 17:40 | 58.35938 | 39.09029 | 36774 ft | 478 kts | 115° |
| 2026-05-05 17:40 | 58.33554 | 39.20818 | 36779 ft | 480 kts | 114° |
| 2026-05-05 17:41 | 58.31160 | 39.32533 | 36786 ft | 480 kts | 114° |
| 2026-05-05 17:41 | 58.28758 | 39.44295 | 36774 ft | 480 kts | 114° |
| 2026-05-05 17:42 | 58.26333 | 39.56077 | 36779 ft | 481 kts | 114° |
| 2026-05-05 17:42 | 58.23900 | 39.67841 | 36778 ft | 480 kts | 115° |
| 2026-05-05 17:43 | 58.21460 | 39.79571 | 36780 ft | 480 kts | 115° |
| 2026-05-05 17:43 | 58.19012 | 39.91302 | 36798 ft | 482 kts | 115° |
| 2026-05-05 17:44 | 58.16536 | 40.03093 | 36791 ft | 481 kts | 115° |
| 2026-05-05 17:44 | 58.14077 | 40.14736 | 36796 ft | 481 kts | 115° |
| 2026-05-05 17:45 | 58.11579 | 40.26466 | 36801 ft | 482 kts | 115° |
| 2026-05-05 17:45 | 58.09075 | 40.38131 | 36797 ft | 481 kts | 115° |
| 2026-05-05 17:46 | 58.06567 | 40.49732 | 36797 ft | 480 kts | 115° |
| 2026-05-05 17:46 | 58.04095 | 40.61467 | 36798 ft | 482 kts | 116° |
| 2026-05-05 17:47 | 58.01131 | 40.72660 | 36802 ft | 476 kts | 124° |
| 2026-05-05 17:47 | 57.97815 | 40.83385 | 36825 ft | 475 kts | 125° |
| 2026-05-05 17:48 | 57.94487 | 40.94041 | 36807 ft | 475 kts | 124° |
| 2026-05-05 17:48 | 57.91186 | 41.04760 | 36821 ft | 476 kts | 124° |
| 2026-05-05 17:49 | 57.87910 | 41.15510 | 36825 ft | 476 kts | 124° |
| 2026-05-05 17:49 | 57.84655 | 41.26239 | 36849 ft | 476 kts | 123° |
| 2026-05-05 17:50 | 57.81397 | 41.36988 | 36830 ft | 477 kts | 123° |
| 2026-05-05 17:50 | 57.78141 | 41.47709 | 36823 ft | 474 kts | 123° |
| 2026-05-05 17:51 | 57.74887 | 41.58390 | 36834 ft | 475 kts | 123° |
| 2026-05-05 17:51 | 57.71607 | 41.69097 | 36840 ft | 475 kts | 124° |
| 2026-05-05 17:52 | 57.68332 | 41.79744 | 36835 ft | 473 kts | 124° |
| 2026-05-05 17:52 | 57.65067 | 41.90295 | 36831 ft | 473 kts | 124° |
| 2026-05-05 17:53 | 57.61768 | 42.00894 | 36834 ft | 474 kts | 124° |
| 2026-05-05 17:53 | 57.58492 | 42.11406 | 36827 ft | 471 kts | 124° |
| 2026-05-05 17:54 | 57.55211 | 42.21881 | 36816 ft | 472 kts | 124° |
| 2026-05-05 17:54 | 57.51899 | 42.32421 | 36811 ft | 470 kts | 124° |
| 2026-05-05 17:55 | 57.48626 | 42.42788 | 36827 ft | 470 kts | 125° |
| 2026-05-05 17:55 | 57.45301 | 42.53259 | 36803 ft | 473 kts | 125° |
| 2026-05-05 17:56 | 57.41964 | 42.63703 | 36825 ft | 472 kts | 124° |
| 2026-05-05 17:56 | 57.38634 | 42.74088 | 36819 ft | 469 kts | 126° |
| 2026-05-05 17:57 | 57.35283 | 42.84425 | 36812 ft | 472 kts | 126° |
| 2026-05-05 17:57 | 57.31919 | 42.94803 | 36812 ft | 474 kts | 126° |
| 2026-05-05 17:58 | 57.28541 | 43.05219 | 36811 ft | 470 kts | 126° |
| 2026-05-05 17:58 | 57.25203 | 43.15480 | 36834 ft | 470 kts | 125° |
| 2026-05-05 17:59 | 57.21845 | 43.25768 | 36829 ft | 470 kts | 125° |
| 2026-05-05 17:59 | 57.18474 | 43.36029 | 36842 ft | 469 kts | 126° |
| 2026-05-05 18:00 | 57.15090 | 43.46244 | 36860 ft | 470 kts | 125° |
| 2026-05-05 18:00 | 57.11704 | 43.56451 | 36857 ft | 468 kts | 125° |
| 2026-05-05 18:01 | 57.08297 | 43.66645 | 36866 ft | 471 kts | 126° |
| 2026-05-05 18:01 | 57.04887 | 43.76812 | 36852 ft | 471 kts | 126° |
| 2026-05-05 18:02 | 57.01448 | 43.87038 | 36853 ft | 471 kts | 126° |
| 2026-05-05 18:02 | 56.98019 | 43.97178 | 36869 ft | 473 kts | 126° |
| 2026-05-05 18:03 | 56.94582 | 44.07349 | 36872 ft | 467 kts | 126° |
| 2026-05-05 18:03 | 56.91173 | 44.17388 | 36866 ft | 468 kts | 126° |
| 2026-05-05 18:04 | 56.87731 | 44.27458 | 36867 ft | 472 kts | 126° |
| 2026-05-05 18:04 | 56.84260 | 44.37548 | 36865 ft | 469 kts | 126° |
| 2026-05-05 18:05 | 56.80785 | 44.47600 | 36875 ft | 468 kts | 126° |
| 2026-05-05 18:05 | 56.77340 | 44.57526 | 36864 ft | 468 kts | 126° |
| 2026-05-05 18:06 | 56.73877 | 44.67500 | 36874 ft | 467 kts | 126° |
| 2026-05-05 18:06 | 56.70423 | 44.77413 | 36886 ft | 463 kts | 127° |
| 2026-05-05 18:07 | 56.66976 | 44.87246 | 36870 ft | 466 kts | 126° |
| 2026-05-05 18:07 | 56.63496 | 44.97121 | 36861 ft | 465 kts | 126° |
| 2026-05-05 18:08 | 56.59992 | 45.06893 | 36865 ft | 461 kts | 126° |
| 2026-05-05 18:08 | 56.56482 | 45.16598 | 36862 ft | 464 kts | 126° |
| 2026-05-05 18:09 | 56.52961 | 45.26292 | 36858 ft | 461 kts | 127° |
| 2026-05-05 18:09 | 56.49449 | 45.35940 | 36862 ft | 461 kts | 126° |
| 2026-05-05 18:10 | 56.45935 | 45.45601 | 36858 ft | 463 kts | 126° |
| 2026-05-05 18:10 | 56.42399 | 45.55278 | 36859 ft | 461 kts | 126° |
| 2026-05-05 18:11 | 56.38882 | 45.64833 | 36860 ft | 462 kts | 126° |
| 2026-05-05 18:11 | 56.35519 | 45.73928 | 36861 ft | 460 kts | 127° |
| 2026-05-05 18:12 | 56.31962 | 45.83503 | 36860 ft | 461 kts | 127° |
| 2026-05-05 18:12 | 56.28410 | 45.93038 | 36607 ft | 457 kts | 127° |
| 2026-05-05 18:12 | 56.26671 | 45.97700 | 36180 ft | 454 kts | 127° |
| 2026-05-05 18:13 | 56.24908 | 46.02423 | 35602 ft | 455 kts | 127° |
| 2026-05-05 18:13 | 56.23151 | 46.07107 | 34917 ft | 458 kts | 127° |
| 2026-05-05 18:13 | 56.21362 | 46.11871 | 34103 ft | 462 kts | 127° |
| 2026-05-05 18:13 | 56.19594 | 46.16581 | 33579 ft | 458 kts | 127° |
| 2026-05-05 18:14 | 56.17836 | 46.21259 | 33040 ft | 454 kts | 127° |
| 2026-05-05 18:14 | 56.16079 | 46.25926 | 32495 ft | 451 kts | 127° |
| 2026-05-05 18:14 | 56.14320 | 46.30591 | 31946 ft | 448 kts | 126° |
| 2026-05-05 18:14 | 56.12598 | 46.35143 | 31399 ft | 445 kts | 127° |
| 2026-05-05 18:15 | 56.10847 | 46.39757 | 30826 ft | 443 kts | 126° |
| 2026-05-05 18:15 | 56.09145 | 46.44229 | 30285 ft | 440 kts | 126° |
| 2026-05-05 18:15 | 56.07463 | 46.48790 | 29743 ft | 438 kts | 123° |
| 2026-05-05 18:15 | 56.06032 | 46.53523 | 29202 ft | 436 kts | 117° |
| 2026-05-05 18:16 | 56.04802 | 46.58422 | 28668 ft | 434 kts | 114° |
| 2026-05-05 18:16 | 56.03684 | 46.63384 | 28129 ft | 431 kts | 112° |
| 2026-05-05 18:16 | 56.02612 | 46.68406 | 27585 ft | 428 kts | 112° |
| 2026-05-05 18:16 | 56.01582 | 46.73328 | 27045 ft | 425 kts | 112° |
| 2026-05-05 18:17 | 56.00543 | 46.78303 | 26510 ft | 422 kts | 112° |
| 2026-05-05 18:17 | 55.99520 | 46.83174 | 25966 ft | 420 kts | 112° |
| 2026-05-05 18:17 | 55.98507 | 46.87964 | 25447 ft | 417 kts | 112° |
| 2026-05-05 18:17 | 55.97480 | 46.92790 | 24915 ft | 414 kts | 112° |
| 2026-05-05 18:18 | 55.96455 | 46.97544 | 24384 ft | 412 kts | 112° |
| 2026-05-05 18:18 | 55.95423 | 47.02300 | 23855 ft | 409 kts | 112° |
| 2026-05-05 18:18 | 55.94400 | 47.07007 | 23338 ft | 407 kts | 112° |
| 2026-05-05 18:18 | 55.93394 | 47.11619 | 22835 ft | 405 kts | 112° |
| 2026-05-05 18:19 | 55.92367 | 47.16314 | 22299 ft | 403 kts | 112° |
| 2026-05-05 18:19 | 55.91370 | 47.20870 | 21784 ft | 401 kts | 112° |
| 2026-05-05 18:19 | 55.90359 | 47.25468 | 21269 ft | 399 kts | 112° |
| 2026-05-05 18:19 | 55.89343 | 47.30077 | 20743 ft | 396 kts | 111° |
| 2026-05-05 18:20 | 55.88350 | 47.34590 | 20234 ft | 394 kts | 111° |
| 2026-05-05 18:20 | 55.87360 | 47.39086 | 19733 ft | 392 kts | 111° |
| 2026-05-05 18:20 | 55.86364 | 47.43598 | 19217 ft | 390 kts | 111° |
| 2026-05-05 18:20 | 55.85373 | 47.48067 | 18701 ft | 389 kts | 111° |
| 2026-05-05 18:21 | 55.84388 | 47.52509 | 18181 ft | 386 kts | 111° |
| 2026-05-05 18:21 | 55.83408 | 47.56933 | 17678 ft | 384 kts | 111° |
| 2026-05-05 18:21 | 55.82436 | 47.61307 | 17176 ft | 382 kts | 111° |
| 2026-05-05 18:21 | 55.81469 | 47.65648 | 16668 ft | 379 kts | 112° |
| 2026-05-05 18:22 | 55.80507 | 47.69947 | 16168 ft | 377 kts | 112° |
| 2026-05-05 18:22 | 55.79533 | 47.74285 | 15658 ft | 375 kts | 113° |
| 2026-05-05 18:22 | 55.78581 | 47.78515 | 15162 ft | 372 kts | 113° |
| 2026-05-05 18:22 | 55.77619 | 47.82772 | 14659 ft | 370 kts | 113° |
| 2026-05-05 18:23 | 55.76672 | 47.86958 | 14126 ft | 364 kts | 113° |
| 2026-05-05 18:23 | 55.75753 | 47.91027 | 13670 ft | 353 kts | 113° |
| 2026-05-05 18:23 | 55.74855 | 47.94997 | 13208 ft | 343 kts | 113° |
| 2026-05-05 18:23 | 55.73970 | 47.98887 | 12748 ft | 334 kts | 113° |
| 2026-05-05 18:24 | 55.73124 | 48.02615 | 12302 ft | 326 kts | 112° |
| 2026-05-05 18:24 | 55.72287 | 48.06307 | 11854 ft | 319 kts | 112° |
| 2026-05-05 18:24 | 55.71467 | 48.09913 | 11425 ft | 312 kts | 112° |
| 2026-05-05 18:24 | 55.70663 | 48.13438 | 11009 ft | 314 kts | 112° |
| 2026-05-05 18:25 | 55.69838 | 48.17036 | 10595 ft | 319 kts | 112° |
| 2026-05-05 18:25 | 55.69278 | 48.19478 | 10307 ft | 322 kts | 112° |
| 2026-05-05 18:25 | 55.68164 | 48.24300 | 9954 ft | 308 kts | 112° |
| 2026-05-05 18:25 | 55.67380 | 48.27699 | 9763 ft | 294 kts | 112° |
| 2026-05-05 18:26 | 55.66616 | 48.31022 | 9398 ft | 290 kts | 112° |
| 2026-05-05 18:26 | 55.65859 | 48.34314 | 8995 ft | 291 kts | 112° |
| 2026-05-05 18:26 | 55.65097 | 48.37608 | 8645 ft | 289 kts | 112° |
| 2026-05-05 18:26 | 55.64332 | 48.40911 | 8284 ft | 289 kts | 112° |
| 2026-05-05 18:27 | 55.63582 | 48.44147 | 7930 ft | 288 kts | 113° |
| 2026-05-05 18:27 | 55.62847 | 48.47446 | 7571 ft | 287 kts | 108° |
| 2026-05-05 18:27 | 55.62439 | 48.50865 | 7213 ft | 287 kts | 94° |
| 2026-05-05 18:27 | 55.62420 | 48.54401 | 6864 ft | 286 kts | 87° |
| 2026-05-05 18:28 | 55.62626 | 48.61395 | 6147 ft | 285 kts | 87° |
| 2026-05-05 18:28 | 55.62700 | 48.64856 | 5796 ft | 285 kts | 88° |
| 2026-05-05 18:28 | 55.62751 | 48.68380 | 5436 ft | 284 kts | 90° |
| 2026-05-05 18:29 | 55.62787 | 48.71833 | 5082 ft | 283 kts | 90° |
| 2026-05-05 18:29 | 55.62820 | 48.75310 | 4740 ft | 282 kts | 90° |
| 2026-05-05 18:29 | 55.62855 | 48.78731 | 4477 ft | 278 kts | 90° |
| 2026-05-05 18:29 | 55.62890 | 48.82147 | 4210 ft | 274 kts | 90° |
| 2026-05-05 18:30 | 55.62923 | 48.85440 | 4122 ft | 263 kts | 90° |
| 2026-05-05 18:30 | 55.63074 | 48.88585 | 4041 ft | 253 kts | 79° |
| 2026-05-05 18:30 | 55.63739 | 48.91398 | 3941 ft | 243 kts | 49° |
| 2026-05-05 18:30 | 55.64993 | 48.93294 | 3704 ft | 239 kts | 31° |
| 2026-05-05 18:31 | 55.66426 | 48.94850 | 3406 ft | 240 kts | 30° |
| 2026-05-05 18:31 | 55.67828 | 48.96407 | 3137 ft | 240 kts | 32° |
| 2026-05-05 18:31 | 55.69149 | 48.98161 | 2986 ft | 234 kts | 44° |
| 2026-05-05 18:31 | 55.69955 | 49.00520 | 2993 ft | 216 kts | 80° |
| 2026-05-05 18:32 | 55.69871 | 49.02997 | 2975 ft | 196 kts | 117° |
| 2026-05-05 18:32 | 55.69237 | 49.05030 | 2974 ft | 188 kts | 125° |
| 2026-05-05 18:32 | 55.68548 | 49.07037 | 2790 ft | 195 kts | 126° |
| 2026-05-05 18:32 | 55.67831 | 49.09035 | 2482 ft | 189 kts | 128° |
| 2026-05-05 18:33 | 55.67118 | 49.10938 | 2246 ft | 184 kts | 129° |
| 2026-05-05 18:33 | 55.66412 | 49.12793 | 2023 ft | 174 kts | 129° |
| 2026-05-05 18:33 | 55.65772 | 49.14479 | 1746 ft | 163 kts | 130° |
| 2026-05-05 18:33 | 55.65163 | 49.16047 | 1555 ft | 149 kts | 131° |
| 2026-05-05 18:34 | 55.64583 | 49.17538 | 1378 ft | 148 kts | 130° |
| 2026-05-05 18:34 | 55.63994 | 49.19065 | 1173 ft | 150 kts | 130° |
| 2026-05-05 18:34 | 55.63399 | 49.20628 | 1040 ft | 152 kts | 129° |
| 2026-05-05 18:34 | 55.62819 | 49.22138 | 784 ft | 146 kts | 128° |
| 2026-05-05 18:35 | 55.62262 | 49.23619 | 552 ft | 144 kts | 127° |
| 2026-05-05 18:35 | 55.61705 | 49.25092 | 384 ft | 142 kts | 127° |
| 2026-05-05 18:35 | 55.61190 | 49.26405 | 359 ft | 102 kts | 124° |
| 2026-05-05 18:35 | 55.60889 | 49.27189 | 373 ft | 60 kts | 124° |
| 2026-05-05 18:36 | 55.60708 | 49.27668 | 383 ft | 35 kts | 121° |
| 2026-05-05 18:36 | 55.60576 | 49.28011 | 388 ft | 32 kts | 124° |
| 2026-05-05 18:36 | 55.60460 | 49.28307 | 392 ft | 28 kts | 124° |
| 2026-05-05 18:36 | 55.60388 | 49.28509 | 396 ft | 15 kts | 104° |
| 2026-05-05 18:37 | 55.60440 | 49.28638 | 397 ft | 12 kts | 32° |
| 2026-05-05 18:37 | 55.60537 | 49.28751 | 402 ft | 21 kts | 34° |
| 2026-05-05 18:37 | 55.60583 | 49.28897 | 404 ft | 13 kts | 94° |
| 2026-05-05 18:37 | 55.60581 | 49.29089 | 405 ft | 19 kts | 77° |
| 2026-05-05 18:38 | 55.60663 | 49.29243 | 407 ft | 16 kts | 34° |
| 2026-05-05 18:38 | 55.60751 | 49.29349 | 407 ft | 15 kts | 34° |
| 2026-05-05 18:38 | 55.60810 | 49.29430 | 406 ft | 7 kts | 58° |
| 2026-05-05 18:38 | 55.60803 | 49.29506 | 406 ft | 5 kts | 123° |
| 2026-05-05 18:39 | 55.60792 | 49.29552 | 407 ft | 4 kts | 89° |
| 2026-05-05 18:39 | 55.60817 | 49.29607 | 408 ft | 4 kts | 35° |
| 2026-05-05 18:39 | 55.60836 | 49.29628 | 408 ft | 1 kts | 33° |
| 2026-05-05 18:39 | 55.60837 | 49.29630 | 408 ft | 0 kts | 33° |